sensor_id;sensor_type;location;lat;lon;timestamp;pressure;altitude;pressure_sealevel;temperature;humidity
14343;BME280;7255;53.596;9.960;2022-07-05T00:00:16;101758.34;;;15.91;nan
14343;BME280;7255;53.596;9.960;2022-07-05T00:02:42;101759.41;;;15.78;nan
14343;BME280;7255;53.596;9.960;2022-07-05T00:05:08;101758.66;;;15.71;nan
14343;BME280;7255;53.596;9.960;2022-07-05T00:07:36;101757.75;;;15.77;nan
14343;BME280;7255;53.596;9.960;2022-07-05T00:10:03;101761.97;;;15.73;nan
14343;BME280;7255;53.596;9.960;2022-07-05T00:12:31;101763.59;;;15.63;nan
14343;BME280;7255;53.596;9.960;2022-07-05T00:14:58;101756.28;;;15.63;nan
14343;BME280;7255;53.596;9.960;2022-07-05T00:17:25;101757.00;;;15.70;nan
14343;BME280;7255;53.596;9.960;2022-07-05T00:19:51;101761.12;;;15.73;nan
14343;BME280;7255;53.596;9.960;2022-07-05T00:22:18;101759.31;;;15.55;nan
14343;BME280;7255;53.596;9.960;2022-07-05T00:24:45;101757.00;;;15.70;nan
14343;BME280;7255;53.596;9.960;2022-07-05T00:27:12;101755.22;;;15.52;nan
14343;BME280;7255;53.596;9.960;2022-07-05T00:29:38;101762.66;;;15.57;nan
14343;BME280;7255;53.596;9.960;2022-07-05T00:32:05;101756.03;;;15.53;nan
14343;BME280;7255;53.596;9.960;2022-07-05T00:34:31;101760.28;;;15.49;nan
14343;BME280;7255;53.596;9.960;2022-07-05T00:36:57;101756.69;;;15.36;nan
14343;BME280;7255;53.596;9.960;2022-07-05T00:39:23;101766.09;;;15.22;nan
14343;BME280;7255;53.596;9.960;2022-07-05T00:41:53;101763.50;;;15.27;nan
14343;BME280;7255;53.596;9.960;2022-07-05T00:44:28;101751.22;;;15.13;nan
14343;BME280;7255;53.596;9.960;2022-07-05T00:46:55;101760.84;;;15.09;nan
14343;BME280;7255;53.596;9.960;2022-07-05T00:49:21;101751.19;;;15.01;nan
14343;BME280;7255;53.596;9.960;2022-07-05T00:51:47;101755.72;;;15.19;nan
14343;BME280;7255;53.596;9.960;2022-07-05T00:54:14;101753.34;;;15.11;nan
14343;BME280;7255;53.596;9.960;2022-07-05T00:56:40;101753.69;;;15.14;nan
14343;BME280;7255;53.596;9.960;2022-07-05T00:59:08;101754.25;;;15.05;nan
14343;BME280;7255;53.596;9.960;2022-07-05T01:01:34;101756.00;;;14.99;nan
14343;BME280;7255;53.596;9.960;2022-07-05T01:04:00;101756.09;;;14.92;nan
14343;BME280;7255;53.596;9.960;2022-07-05T01:06:27;101757.44;;;14.83;nan
14343;BME280;7255;53.596;9.960;2022-07-05T01:08:53;101752.72;;;14.97;nan
14343;BME280;7255;53.596;9.960;2022-07-05T01:11:19;101752.78;;;14.90;nan
14343;BME280;7255;53.596;9.960;2022-07-05T01:13:46;101751.41;;;14.99;nan
14343;BME280;7255;53.596;9.960;2022-07-05T01:16:14;101751.78;;;15.03;nan
14343;BME280;7255;53.596;9.960;2022-07-05T01:18:41;101747.66;;;15.00;nan
14343;BME280;7255;53.596;9.960;2022-07-05T01:21:12;101746.44;;;14.96;nan
14343;BME280;7255;53.596;9.960;2022-07-05T01:23:40;101745.00;;;14.82;nan
14343;BME280;7255;53.596;9.960;2022-07-05T01:26:07;101742.88;;;14.84;nan
14343;BME280;7255;53.596;9.960;2022-07-05T01:28:33;101745.06;;;14.75;nan
14343;BME280;7255;53.596;9.960;2022-07-05T01:31:00;101750.41;;;14.82;nan
14343;BME280;7255;53.596;9.960;2022-07-05T01:33:27;101749.56;;;14.81;nan
14343;BME280;7255;53.596;9.960;2022-07-05T01:35:54;101746.41;;;14.85;nan
14343;BME280;7255;53.596;9.960;2022-07-05T01:38:21;101744.88;;;14.58;nan
14343;BME280;7255;53.596;9.960;2022-07-05T01:40:48;101750.56;;;14.69;nan
14343;BME280;7255;53.596;9.960;2022-07-05T01:43:16;101752.66;;;14.67;nan
14343;BME280;7255;53.596;9.960;2022-07-05T01:45:43;101751.47;;;14.62;nan
14343;BME280;7255;53.596;9.960;2022-07-05T01:48:12;101748.63;;;14.57;nan
14343;BME280;7255;53.596;9.960;2022-07-05T01:50:41;101739.06;;;14.55;nan
14343;BME280;7255;53.596;9.960;2022-07-05T01:53:10;101745.63;;;14.66;nan
14343;BME280;7255;53.596;9.960;2022-07-05T01:55:37;101751.09;;;14.59;nan
14343;BME280;7255;53.596;9.960;2022-07-05T01:58:05;101733.72;;;14.48;nan
14343;BME280;7255;53.596;9.960;2022-07-05T02:00:41;101736.00;;;14.33;nan
14343;BME280;7255;53.596;9.960;2022-07-05T02:03:07;101741.47;;;14.26;nan
14343;BME280;7255;53.596;9.960;2022-07-05T02:05:34;101746.03;;;14.25;nan
14343;BME280;7255;53.596;9.960;2022-07-05T02:08:00;101746.34;;;14.36;nan
14343;BME280;7255;53.596;9.960;2022-07-05T02:10:26;101745.06;;;14.38;nan
14343;BME280;7255;53.596;9.960;2022-07-05T02:12:53;101733.50;;;14.31;nan
14343;BME280;7255;53.596;9.960;2022-07-05T02:15:20;101738.09;;;14.31;nan
14343;BME280;7255;53.596;9.960;2022-07-05T02:17:47;101736.88;;;14.27;nan
14343;BME280;7255;53.596;9.960;2022-07-05T02:20:13;101749.41;;;14.21;nan
14343;BME280;7255;53.596;9.960;2022-07-05T02:22:39;101742.47;;;14.06;nan
14343;BME280;7255;53.596;9.960;2022-07-05T02:25:08;101741.59;;;14.13;nan
14343;BME280;7255;53.596;9.960;2022-07-05T02:27:34;101749.22;;;13.97;nan
14343;BME280;7255;53.596;9.960;2022-07-05T02:30:00;101747.97;;;14.00;nan
14343;BME280;7255;53.596;9.960;2022-07-05T02:32:28;101747.97;;;14.00;nan
14343;BME280;7255;53.596;9.960;2022-07-05T02:34:56;101751.41;;;13.89;nan
14343;BME280;7255;53.596;9.960;2022-07-05T02:37:23;101754.72;;;13.91;nan
14343;BME280;7255;53.596;9.960;2022-07-05T02:39:49;101755.47;;;13.98;nan
14343;BME280;7255;53.596;9.960;2022-07-05T02:42:15;101758.91;;;13.86;nan
14343;BME280;7255;53.596;9.960;2022-07-05T02:44:41;101758.13;;;13.79;nan
14343;BME280;7255;53.596;9.960;2022-07-05T02:47:08;101760.97;;;13.84;nan
14343;BME280;7255;53.596;9.960;2022-07-05T02:49:35;101760.19;;;13.77;nan
14343;BME280;7255;53.596;9.960;2022-07-05T02:52:02;101767.62;;;13.89;nan
14343;BME280;7255;53.596;9.960;2022-07-05T02:54:28;101762.25;;;13.82;nan
14343;BME280;7255;53.596;9.960;2022-07-05T02:56:55;101772.69;;;13.78;nan
14343;BME280;7255;53.596;9.960;2022-07-05T02:59:21;101759.06;;;13.66;nan
14343;BME280;7255;53.596;9.960;2022-07-05T03:01:47;101759.13;;;13.60;nan
14343;BME280;7255;53.596;9.960;2022-07-05T03:04:14;101766.06;;;13.74;nan
14343;BME280;7255;53.596;9.960;2022-07-05T03:06:41;101763.19;;;13.69;nan
14343;BME280;7255;53.596;9.960;2022-07-05T03:09:07;101760.53;;;13.62;nan
14343;BME280;7255;53.596;9.960;2022-07-05T03:11:34;101761.91;;;13.72;nan
14343;BME280;7255;53.596;9.960;2022-07-05T03:14:00;101759.91;;;13.67;nan
14343;BME280;7255;53.596;9.960;2022-07-05T03:16:27;101768.59;;;13.69;nan
14343;BME280;7255;53.596;9.960;2022-07-05T03:18:54;101755.53;;;13.66;nan
14343;BME280;7255;53.596;9.960;2022-07-05T03:21:21;101768.59;;;13.69;nan
14343;BME280;7255;53.596;9.960;2022-07-05T03:23:49;101761.25;;;13.51;nan
14343;BME280;7255;53.596;9.960;2022-07-05T03:26:15;101754.16;;;13.57;nan
14343;BME280;7255;53.596;9.960;2022-07-05T03:28:41;101770.72;;;13.60;nan
14343;BME280;7255;53.596;9.960;2022-07-05T03:31:08;101765.94;;;13.88;nan
14343;BME280;7255;53.596;9.960;2022-07-05T03:33:34;101767.44;;;13.83;nan
14343;BME280;7255;53.596;9.960;2022-07-05T03:36:00;101763.97;;;13.76;nan
14343;BME280;7255;53.596;9.960;2022-07-05T03:38:26;101765.28;;;13.67;nan
14343;BME280;7255;53.596;9.960;2022-07-05T03:40:54;101764.31;;;13.61;nan
14343;BME280;7255;53.596;9.960;2022-07-05T03:43:20;101764.50;;;13.60;nan
14343;BME280;7255;53.596;9.960;2022-07-05T03:45:47;101755.25;;;13.74;nan
14343;BME280;7255;53.596;9.960;2022-07-05T03:48:13;101761.91;;;13.72;nan
14343;BME280;7255;53.596;9.960;2022-07-05T03:50:39;101770.44;;;13.94;nan
14343;BME280;7255;53.596;9.960;2022-07-05T03:53:06;101775.84;;;13.94;nan
14343;BME280;7255;53.596;9.960;2022-07-05T03:55:32;101773.78;;;13.96;nan
14343;BME280;7255;53.596;9.960;2022-07-05T03:57:59;101768.44;;;13.89;nan
14343;BME280;7255;53.596;9.960;2022-07-05T04:00:26;101774.84;;;14.13;nan
14343;BME280;7255;53.596;9.960;2022-07-05T04:02:52;101773.50;;;14.22;nan
14343;BME280;7255;53.596;9.960;2022-07-05T04:05:18;101768.50;;;14.26;nan
14343;BME280;7255;53.596;9.960;2022-07-05T04:07:49;101754.75;;;14.28;nan
14343;BME280;7255;53.596;9.960;2022-07-05T04:10:15;101764.47;;;14.10;nan
14343;BME280;7255;53.596;9.960;2022-07-05T04:12:42;101778.72;;;13.99;nan
14343;BME280;7255;53.596;9.960;2022-07-05T04:15:10;101785.78;;;14.00;nan
14343;BME280;7255;53.596;9.960;2022-07-05T04:17:45;101789.09;;;14.02;nan
14343;BME280;7255;53.596;9.960;2022-07-05T04:20:12;101786.56;;;14.07;nan
14343;BME280;7255;53.596;9.960;2022-07-05T04:22:38;101779.72;;;14.04;nan
14343;BME280;7255;53.596;9.960;2022-07-05T04:25:05;101796.09;;;14.10;nan
14343;BME280;7255;53.596;9.960;2022-07-05T04:27:44;101798.69;;;13.98;nan
14343;BME280;7255;53.596;9.960;2022-07-05T04:30:12;101796.84;;;14.17;nan
14343;BME280;7255;53.596;9.960;2022-07-05T04:32:39;101791.84;;;14.20;nan
14343;BME280;7255;53.596;9.960;2022-07-05T04:35:06;101785.66;;;14.13;nan
14343;BME280;7255;53.596;9.960;2022-07-05T04:37:33;101795.09;;;14.29;nan
14343;BME280;7255;53.596;9.960;2022-07-05T04:39:59;101795.53;;;14.26;nan
14343;BME280;7255;53.596;9.960;2022-07-05T04:42:25;101793.88;;;14.25;nan
14343;BME280;7255;53.596;9.960;2022-07-05T04:44:52;101798.00;;;14.28;nan
14343;BME280;7255;53.596;9.960;2022-07-05T04:47:19;101799.34;;;14.18;nan
14343;BME280;7255;53.596;9.960;2022-07-05T04:49:46;101806.28;;;14.33;nan
14343;BME280;7255;53.596;9.960;2022-07-05T04:52:12;101799.19;;;14.32;nan
14343;BME280;7255;53.596;9.960;2022-07-05T04:54:38;101793.34;;;14.35;nan
14343;BME280;7255;53.596;9.960;2022-07-05T04:57:04;101799.44;;;14.49;nan
14343;BME280;7255;53.596;9.960;2022-07-05T04:59:31;101802.72;;;14.57;nan
14343;BME280;7255;53.596;9.960;2022-07-05T05:01:57;101800.09;;;14.69;nan
14343;BME280;7255;53.596;9.960;2022-07-05T05:04:25;101809.81;;;14.89;nan
14343;BME280;7255;53.596;9.960;2022-07-05T05:06:51;101802.09;;;14.74;nan
14343;BME280;7255;53.596;9.960;2022-07-05T05:09:17;101807.81;;;14.84;nan
14343;BME280;7255;53.596;9.960;2022-07-05T05:11:44;101813.94;;;15.10;nan
14343;BME280;7255;53.596;9.960;2022-07-05T05:14:10;101813.25;;;15.14;nan
14343;BME280;7255;53.596;9.960;2022-07-05T05:16:36;101819.50;;;15.15;nan
14343;BME280;7255;53.596;9.960;2022-07-05T05:19:02;101830.16;;;15.28;nan
14343;BME280;7255;53.596;9.960;2022-07-05T05:21:30;101835.56;;;15.28;nan
14343;BME280;7255;53.596;9.960;2022-07-05T05:23:57;101829.06;;;15.48;nan
14343;BME280;7255;53.596;9.960;2022-07-05T05:26:23;101833.78;;;15.64;nan
14343;BME280;7255;53.596;9.960;2022-07-05T05:28:50;101833.16;;;15.81;nan
14343;BME280;7255;53.596;9.960;2022-07-05T05:31:17;101830.84;;;15.66;nan
14343;BME280;7255;53.596;9.960;2022-07-05T05:33:44;101830.03;;;15.65;nan
14343;BME280;7255;53.596;9.960;2022-07-05T05:36:10;101828.25;;;16.01;nan
14343;BME280;7255;53.596;9.960;2022-07-05T05:38:38;101833.44;;;16.38;nan
14343;BME280;7255;53.596;9.960;2022-07-05T05:41:04;101838.84;;;16.62;nan
14343;BME280;7255;53.596;9.960;2022-07-05T05:43:31;101840.25;;;16.76;nan
14343;BME280;7255;53.596;9.960;2022-07-05T05:45:58;101832.81;;;16.71;nan
14343;BME280;7255;53.596;9.960;2022-07-05T05:48:24;101838.00;;;16.85;nan
14343;BME280;7255;53.596;9.960;2022-07-05T05:50:51;101847.41;;;16.94;nan
14343;BME280;7255;53.596;9.960;2022-07-05T05:53:17;101835.03;;;16.86;nan
14343;BME280;7255;53.596;9.960;2022-07-05T05:55:45;101833.13;;;16.99;nan
14343;BME280;7255;53.596;9.960;2022-07-05T05:58:12;101842.53;;;17.08;nan
14343;BME280;7255;53.596;9.960;2022-07-05T06:00:39;101845.06;;;17.26;nan
14343;BME280;7255;53.596;9.960;2022-07-05T06:03:05;101851.19;;;17.34;nan
14343;BME280;7255;53.596;9.960;2022-07-05T06:05:32;101854.72;;;17.34;nan
14343;BME280;7255;53.596;9.960;2022-07-05T06:07:58;101851.19;;;17.34;nan
14343;BME280;7255;53.596;9.960;2022-07-05T06:10:28;101855.94;;;17.26;nan
14343;BME280;7255;53.596;9.960;2022-07-05T06:12:58;101854.13;;;17.32;nan
14343;BME280;7255;53.596;9.960;2022-07-05T06:15:25;101860.59;;;17.43;nan
14343;BME280;7255;53.596;9.960;2022-07-05T06:17:51;101857.94;;;17.31;nan
14343;BME280;7255;53.596;9.960;2022-07-05T06:20:19;101864.22;;;17.48;nan
14343;BME280;7255;53.596;9.960;2022-07-05T06:22:47;101864.91;;;17.56;nan
14343;BME280;7255;53.596;9.960;2022-07-05T06:25:13;101872.00;;;17.57;nan
14343;BME280;7255;53.596;9.960;2022-07-05T06:27:40;101865.25;;;17.59;nan
14343;BME280;7255;53.596;9.960;2022-07-05T06:30:09;101862.28;;;17.61;nan
14343;BME280;7255;53.596;9.960;2022-07-05T06:32:36;101865.44;;;17.69;nan
14343;BME280;7255;53.596;9.960;2022-07-05T06:35:02;101874.88;;;17.96;nan
14343;BME280;7255;53.596;9.960;2022-07-05T06:37:40;101877.81;;;18.11;nan
14343;BME280;7255;53.596;9.960;2022-07-05T06:40:07;101881.44;;;18.51;nan
14343;BME280;7255;53.596;9.960;2022-07-05T06:42:34;101870.19;;;18.64;nan
14343;BME280;7255;53.596;9.960;2022-07-05T06:45:01;101879.75;;;18.83;nan
14343;BME280;7255;53.596;9.960;2022-07-05T06:47:28;101878.47;;;19.13;nan
14343;BME280;7255;53.596;9.960;2022-07-05T06:49:57;101883.59;;;19.10;nan
14343;BME280;7255;53.596;9.960;2022-07-05T06:52:23;101879.22;;;19.31;nan
14343;BME280;7255;53.596;9.960;2022-07-05T06:54:49;101876.09;;;19.71;nan
14343;BME280;7255;53.596;9.960;2022-07-05T06:57:18;101885.75;;;20.16;nan
14343;BME280;7255;53.596;9.960;2022-07-05T06:59:45;101881.16;;;20.17;nan
14343;BME280;7255;53.596;9.960;2022-07-05T07:02:11;101885.34;;;20.30;nan
14343;BME280;7255;53.596;9.960;2022-07-05T07:04:39;101888.53;;;20.22;nan
14343;BME280;7255;53.596;9.960;2022-07-05T07:07:05;101891.22;;;20.16;nan
14343;BME280;7255;53.596;9.960;2022-07-05T07:09:52;101897.06;;;20.30;nan
14343;BME280;7255;53.596;9.960;2022-07-05T07:12:17;101894.16;;;19.77;nan
14343;BME280;7255;53.596;9.960;2022-07-05T07:14:44;101893.22;;;19.67;nan
14343;BME280;7255;53.596;9.960;2022-07-05T07:17:11;101893.31;;;20.04;nan
14343;BME280;7255;53.596;9.960;2022-07-05T07:19:38;101899.09;;;20.08;nan
14343;BME280;7255;53.596;9.960;2022-07-05T07:22:05;101891.88;;;19.96;nan
14343;BME280;7255;53.596;9.960;2022-07-05T07:24:31;101896.00;;;19.72;nan
14343;BME280;7255;53.596;9.960;2022-07-05T07:26:57;101899.72;;;19.88;nan
14343;BME280;7255;53.596;9.960;2022-07-05T07:29:32;101896.97;;;20.20;nan
14343;BME280;7255;53.596;9.960;2022-07-05T07:31:59;101903.38;;;20.04;nan
14343;BME280;7255;53.596;9.960;2022-07-05T07:34:26;101901.91;;;19.91;nan
14343;BME280;7255;53.596;9.960;2022-07-05T07:36:55;101907.72;;;19.99;nan
14343;BME280;7255;53.596;9.960;2022-07-05T07:39:22;101909.44;;;20.11;nan
14343;BME280;7255;53.596;9.960;2022-07-05T07:41:49;101898.22;;;20.39;nan
14343;BME280;7255;53.596;9.960;2022-07-05T07:44:16;101906.25;;;20.56;nan
14343;BME280;7255;53.596;9.960;2022-07-05T07:46:42;101907.13;;;19.92;nan
14343;BME280;7255;53.596;9.960;2022-07-05T07:49:09;101903.31;;;19.66;nan
14343;BME280;7255;53.596;9.960;2022-07-05T07:51:37;101908.63;;;19.56;nan
14343;BME280;7255;53.596;9.960;2022-07-05T07:54:04;101904.44;;;19.21;nan
14343;BME280;7255;53.596;9.960;2022-07-05T07:56:31;101891.28;;;18.91;nan
14343;BME280;7255;53.596;9.960;2022-07-05T07:58:57;101897.69;;;19.01;nan
14343;BME280;7255;53.596;9.960;2022-07-05T08:01:24;101899.62;;;19.06;nan
14343;BME280;7255;53.596;9.960;2022-07-05T08:03:50;101892.72;;;18.98;nan
14343;BME280;7255;53.596;9.960;2022-07-05T08:06:17;101894.81;;;19.13;nan
14343;BME280;7255;53.596;9.960;2022-07-05T08:08:44;101891.47;;;19.55;nan
14343;BME280;7255;53.596;9.960;2022-07-05T08:11:12;101890.03;;;19.48;nan
14343;BME280;7255;53.596;9.960;2022-07-05T08:13:39;101893.00;;;19.46;nan
14343;BME280;7255;53.596;9.960;2022-07-05T08:16:07;101903.72;;;19.53;nan
14343;BME280;7255;53.596;9.960;2022-07-05T08:18:34;101898.31;;;19.80;nan
14343;BME280;7255;53.596;9.960;2022-07-05T08:21:18;101900.91;;;19.97;nan
14343;BME280;7255;53.596;9.960;2022-07-05T08:24:03;101907.87;;;20.20;nan
14343;BME280;7255;53.596;9.960;2022-07-05T08:26:32;101903.56;;;20.24;nan
14343;BME280;7255;53.596;9.960;2022-07-05T08:28:59;101912.38;;;20.31;nan
14343;BME280;7255;53.596;9.960;2022-07-05T08:31:27;101916.22;;;20.35;nan
14343;BME280;7255;53.596;9.960;2022-07-05T08:33:54;101915.22;;;20.52;nan
14343;BME280;7255;53.596;9.960;2022-07-05T08:36:21;101912.69;;;20.77;nan
14343;BME280;7255;53.596;9.960;2022-07-05T08:38:48;101914.59;;;20.82;nan
14343;BME280;7255;53.596;9.960;2022-07-05T08:41:17;101919.50;;;20.37;nan
14343;BME280;7255;53.596;9.960;2022-07-05T08:43:46;101921.03;;;20.23;nan
14343;BME280;7255;53.596;9.960;2022-07-05T08:46:14;101917.97;;;20.52;nan
14343;BME280;7255;53.596;9.960;2022-07-05T08:48:41;101910.06;;;21.03;nan
14343;BME280;7255;53.596;9.960;2022-07-05T08:51:11;101911.22;;;21.18;nan
14343;BME280;7255;53.596;9.960;2022-07-05T08:53:38;101907.84;;;20.95;nan
14343;BME280;7255;53.596;9.960;2022-07-05T08:56:07;101922.34;;;21.01;nan
14343;BME280;7255;53.596;9.960;2022-07-05T08:58:34;101923.69;;;20.50;nan
14343;BME280;7255;53.596;9.960;2022-07-05T09:01:02;101912.06;;;20.33;nan
14343;BME280;7255;53.596;9.960;2022-07-05T09:03:31;101925.56;;;20.45;nan
14343;BME280;7255;53.596;9.960;2022-07-05T09:05:58;101932.09;;;20.44;nan
14343;BME280;7255;53.596;9.960;2022-07-05T09:08:26;101934.97;;;20.64;nan
14343;BME280;7255;53.596;9.960;2022-07-05T09:10:57;101927.97;;;20.73;nan
14343;BME280;7255;53.596;9.960;2022-07-05T09:13:23;101926.00;;;21.22;nan
14343;BME280;7255;53.596;9.960;2022-07-05T09:15:50;101933.03;;;21.07;nan
14343;BME280;7255;53.596;9.960;2022-07-05T09:18:39;101930.41;;;20.75;nan
14343;BME280;7255;53.596;9.960;2022-07-05T09:21:12;101932.28;;;20.32;nan
14343;BME280;7255;53.596;9.960;2022-07-05T09:23:39;101925.31;;;20.14;nan
14343;BME280;7255;53.596;9.960;2022-07-05T09:26:05;101934.06;;;20.16;nan
14343;BME280;7255;53.596;9.960;2022-07-05T09:28:32;101932.50;;;20.25;nan
14343;BME280;7255;53.596;9.960;2022-07-05T09:30:58;101934.56;;;20.45;nan
14343;BME280;7255;53.596;9.960;2022-07-05T09:33:24;101938.81;;;20.63;nan
14343;BME280;7255;53.596;9.960;2022-07-05T09:35:53;101944.06;;;20.70;nan
14343;BME280;7255;53.596;9.960;2022-07-05T09:38:23;101944.91;;;20.43;nan
14343;BME280;7255;53.596;9.960;2022-07-05T09:40:50;101923.25;;;20.26;nan
14343;BME280;7255;53.596;9.960;2022-07-05T09:43:18;101928.37;;;20.60;nan
14343;BME280;7255;53.596;9.960;2022-07-05T09:45:56;101933.03;;;20.60;nan
14343;BME280;7255;53.596;9.960;2022-07-05T09:48:23;101934.44;;;20.30;nan
14343;BME280;7255;53.596;9.960;2022-07-05T09:50:49;101934.25;;;20.09;nan
14343;BME280;7255;53.596;9.960;2022-07-05T09:53:18;101933.44;;;20.09;nan
14343;BME280;7255;53.596;9.960;2022-07-05T09:55:59;101933.00;;;20.22;nan
14343;BME280;7255;53.596;9.960;2022-07-05T09:58:26;101943.81;;;20.39;nan
14343;BME280;7255;53.596;9.960;2022-07-05T10:00:52;101940.44;;;20.64;nan
14343;BME280;7255;53.596;9.960;2022-07-05T10:03:19;101941.75;;;20.99;nan
14343;BME280;7255;53.596;9.960;2022-07-05T10:05:45;101919.62;;;21.06;nan
14343;BME280;7255;53.596;9.960;2022-07-05T10:08:12;101931.06;;;21.50;nan
14343;BME280;7255;53.596;9.960;2022-07-05T10:10:41;101938.69;;;21.48;nan
14343;BME280;7255;53.596;9.960;2022-07-05T10:13:09;101925.19;;;21.26;nan
14343;BME280;7255;53.596;9.960;2022-07-05T10:15:36;101934.19;;;21.22;nan
14343;BME280;7255;53.596;9.960;2022-07-05T10:18:04;101932.94;;;20.87;nan
14343;BME280;7255;53.596;9.960;2022-07-05T10:20:34;101941.28;;;20.65;nan
14343;BME280;7255;53.596;9.960;2022-07-05T10:23:07;101934.44;;;20.30;nan
14343;BME280;7255;53.596;9.960;2022-07-05T10:25:34;101938.47;;;20.22;nan
14343;BME280;7255;53.596;9.960;2022-07-05T10:28:04;101934.16;;;20.64;nan
14343;BME280;7255;53.596;9.960;2022-07-05T10:30:31;101931.44;;;21.17;nan
14343;BME280;7255;53.596;9.960;2022-07-05T10:32:58;101928.78;;;21.42;nan
14343;BME280;7255;53.596;9.960;2022-07-05T10:35:25;101934.06;;;21.59;nan
14343;BME280;7255;53.596;9.960;2022-07-05T10:37:52;101924.81;;;21.81;nan
14343;BME280;7255;53.596;9.960;2022-07-05T10:40:19;101929.50;;;22.11;nan
14343;BME280;7255;53.596;9.960;2022-07-05T10:42:48;101933.59;;;22.44;nan
14343;BME280;7255;53.596;9.960;2022-07-05T10:45:29;101931.03;;;22.94;nan
14343;BME280;7255;53.596;9.960;2022-07-05T10:48:12;101922.88;;;22.68;nan
14343;BME280;7255;53.596;9.960;2022-07-05T10:50:50;101933.56;;;22.55;nan
14343;BME280;7255;53.596;9.960;2022-07-05T10:53:18;101914.66;;;22.74;nan
14343;BME280;7255;53.596;9.960;2022-07-05T10:55:51;101933.59;;;22.44;nan
14343;BME280;7255;53.596;9.960;2022-07-05T10:58:20;101922.91;;;21.97;nan
14343;BME280;7255;53.596;9.960;2022-07-05T11:00:49;101923.72;;;21.97;nan
14343;BME280;7255;53.596;9.960;2022-07-05T11:03:36;101927.28;;;22.23;nan
14343;BME280;7255;53.596;9.960;2022-07-05T11:06:04;101926.78;;;22.37;nan
14343;BME280;7255;53.596;9.960;2022-07-05T11:11:37;101933.59;;;22.14;nan
14343;BME280;7255;53.596;9.960;2022-07-05T11:14:31;101919.34;;;22.01;nan
14343;BME280;7255;53.596;9.960;2022-07-05T11:17:26;101924.25;;;21.73;nan
14343;BME280;7255;53.596;9.960;2022-07-05T11:20:27;101914.72;;;21.97;nan
14343;BME280;7255;53.596;9.960;2022-07-05T11:23:02;101928.13;;;22.24;nan
14343;BME280;7255;53.596;9.960;2022-07-05T11:25:30;101915.50;;;22.13;nan
14343;BME280;7255;53.596;9.960;2022-07-05T11:28:12;101913.88;;;22.01;nan
14343;BME280;7255;53.596;9.960;2022-07-05T11:30:49;101921.28;;;22.06;nan
14343;BME280;7255;53.596;9.960;2022-07-05T11:33:38;101916.56;;;21.55;nan
14343;BME280;7255;53.596;9.960;2022-07-05T11:36:21;101912.19;;;21.49;nan
14343;BME280;7255;53.596;9.960;2022-07-05T11:39:07;101913.59;;;21.67;nan
14343;BME280;7255;53.596;9.960;2022-07-05T11:41:33;101902.91;;;21.60;nan
14343;BME280;7255;53.596;9.960;2022-07-05T11:44:01;101899.62;;;21.68;nan
14343;BME280;7255;53.596;9.960;2022-07-05T11:46:28;101902.84;;;21.40;nan
14343;BME280;7255;53.596;9.960;2022-07-05T11:48:55;101901.78;;;21.46;nan
14343;BME280;7255;53.596;9.960;2022-07-05T11:51:23;101904.81;;;21.55;nan
14343;BME280;7255;53.596;9.960;2022-07-05T11:53:49;101907.31;;;22.07;nan
14343;BME280;7255;53.596;9.960;2022-07-05T11:56:16;101902.69;;;22.44;nan
14343;BME280;7255;53.596;9.960;2022-07-05T11:58:43;101899.81;;;22.85;nan
14343;BME280;7255;53.596;9.960;2022-07-05T12:01:09;101909.50;;;22.36;nan
14343;BME280;7255;53.596;9.960;2022-07-05T12:03:36;101908.09;;;22.70;nan
14343;BME280;7255;53.596;9.960;2022-07-05T12:06:11;101902.03;;;22.83;nan
14343;BME280;7255;53.596;9.960;2022-07-05T12:08:40;101902.28;;;22.86;nan
14343;BME280;7255;53.596;9.960;2022-07-05T12:11:09;101906.09;;;22.91;nan
14343;BME280;7255;53.596;9.960;2022-07-05T12:13:53;101913.72;;;23.14;nan
14343;BME280;7255;53.596;9.960;2022-07-05T12:16:19;101905.66;;;23.33;nan
14343;BME280;7255;53.596;9.960;2022-07-05T12:18:47;101906.78;;;23.72;nan
14343;BME280;7255;53.596;9.960;2022-07-05T12:21:14;101904.81;;;23.82;nan
14343;BME280;7255;53.596;9.960;2022-07-05T12:23:43;101905.28;;;23.95;nan
14343;BME280;7255;53.596;9.960;2022-07-05T12:26:10;101895.84;;;24.06;nan
14343;BME280;7255;53.596;9.960;2022-07-05T12:28:37;101903.19;;;23.76;nan
14343;BME280;7255;53.596;9.960;2022-07-05T12:31:17;101897.66;;;23.87;nan
14343;BME280;7255;53.596;9.960;2022-07-05T12:33:44;101903.28;;;23.61;nan
14343;BME280;7255;53.596;9.960;2022-07-05T12:36:11;101885.94;;;24.10;nan
14343;BME280;7255;53.596;9.960;2022-07-05T12:38:38;101902.13;;;23.72;nan
14343;BME280;7255;53.596;9.960;2022-07-05T12:41:06;101898.94;;;23.60;nan
14343;BME280;7255;53.596;9.960;2022-07-05T12:43:32;101906.34;;;23.99;nan
14343;BME280;7255;53.596;9.960;2022-07-05T12:46:00;101896.59;;;24.17;nan
14343;BME280;7255;53.596;9.960;2022-07-05T12:48:30;101893.44;;;24.29;nan
14343;BME280;7255;53.596;9.960;2022-07-05T12:50:57;101899.56;;;24.50;nan
14343;BME280;7255;53.596;9.960;2022-07-05T12:53:23;101891.53;;;24.58;nan
14343;BME280;7255;53.596;9.960;2022-07-05T12:56:10;101899.62;;;24.15;nan
14343;BME280;7255;53.596;9.960;2022-07-05T12:58:56;101904.72;;;23.98;nan
14343;BME280;7255;53.596;9.960;2022-07-05T13:01:24;101898.13;;;24.57;nan
14343;BME280;7255;53.596;9.960;2022-07-05T13:04:03;101903.00;;;24.66;nan
14343;BME280;7255;53.596;9.960;2022-07-05T13:06:48;101895.84;;;24.06;nan
14343;BME280;7255;53.596;9.960;2022-07-05T13:09:28;101892.75;;;23.83;nan
14343;BME280;7255;53.596;9.960;2022-07-05T13:12:09;101901.50;;;23.86;nan
14343;BME280;7255;53.596;9.960;2022-07-05T13:14:37;101898.97;;;23.94;nan
14343;BME280;7255;53.596;9.960;2022-07-05T13:17:05;101885.25;;;23.50;nan
14343;BME280;7255;53.596;9.960;2022-07-05T13:19:31;101889.28;;;23.23;nan
14343;BME280;7255;53.596;9.960;2022-07-05T13:21:57;101897.00;;;23.11;nan
14343;BME280;7255;53.596;9.960;2022-07-05T13:24:24;101888.13;;;22.64;nan
14343;BME280;7255;53.596;9.960;2022-07-05T13:26:50;101895.28;;;22.24;nan
14343;BME280;7255;53.596;9.960;2022-07-05T13:29:19;101896.06;;;21.63;nan
14343;BME280;7255;53.596;9.960;2022-07-05T13:31:45;101887.66;;;20.96;nan